Time;durP1;ratioP1;P1;durP2;ratioP2;P2;SDS_P1;SDS_P2;PMS_P1;PMS_P2;Temp;Humidity;BMP_temperature;BMP_pressure;BME280_temperature;BME280_humidity;BME280_pressure;Samples;Min_cycle;Max_cycle;Signal;HPM_P1;HPM_P2
2023/03/06 00:00:39;;;;;;;6.40;0.90;;;2.70;99.90;;;;;;4984889;28;20045;-81
2023/03/06 00:03:05;;;;;;;2.38;0.35;;;2.70;99.90;;;;;;4976960;28;20068;-80
2023/03/06 00:05:31;;;;;;;3.13;0.50;;;2.70;99.90;;;;;;4986701;28;20418;-80
2023/03/06 00:07:56;;;;;;;4.85;0.60;;;2.70;99.90;;;;;;4999508;28;20046;-81
2023/03/06 00:10:27;;;;;;;4.85;0.50;;;2.70;99.90;;;;;;4985122;28;20565;-80
2023/03/06 00:12:58;;;;;;;2.90;0.30;;;2.80;99.90;;;;;;4999705;28;20081;-79
2023/03/06 00:15:32;;;;;;;1.10;0.20;;;4.60;99.90;;;;;;4999494;28;20042;-80
2023/03/06 00:17:58;;;;;;;1.58;0.40;;;4.50;99.90;;;;;;5000787;28;20490;-80
2023/03/06 00:20:25;;;;;;;2.45;0.57;;;3.60;99.90;;;;;;4984668;28;20053;-81
2023/03/06 00:22:50;;;;;;;2.88;0.63;;;2.70;99.90;;;;;;4984217;28;20456;-80
2023/03/06 00:25:19;;;;;;;0.68;0.30;;;2.50;99.90;;;;;;4981763;28;20046;-80
2023/03/06 00:27:44;;;;;;;3.42;0.47;;;2.60;99.90;;;;;;4993367;28;20062;-79
2023/03/06 00:30:13;;;;;;;3.40;0.50;;;2.60;99.90;;;;;;5015564;28;20053;-80
2023/03/06 00:32:39;;;;;;;1.38;0.32;;;2.60;99.90;;;;;;5003161;28;20054;-80
2023/03/06 00:35:05;;;;;;;1.85;0.50;;;2.50;99.90;;;;;;4965049;28;20096;-80
2023/03/06 00:37:31;;;;;;;2.35;0.30;;;2.50;99.90;;;;;;4998993;28;20049;-81
2023/03/06 00:39:58;;;;;;;2.28;0.25;;;2.40;99.90;;;;;;4982471;28;20490;-81
2023/03/06 00:42:24;;;;;;;2.58;0.40;;;3.10;99.90;;;;;;5001588;28;20050;-80
2023/03/06 00:44:49;;;;;;;2.25;0.50;;;2.50;99.90;;;;;;4984382;28;20054;-81
2023/03/06 00:47:18;;;;;;;3.47;0.52;;;2.60;99.90;;;;;;4980789;28;20046;-81
2023/03/06 00:49:44;;;;;;;3.17;0.50;;;1.50;99.90;;;;;;4997976;28;20120;-81
2023/03/06 00:52:11;;;;;;;6.50;0.77;;;2.50;99.90;;;;;;5000915;28;20050;-80
2023/03/06 00:54:37;;;;;;;3.42;0.50;;;2.40;99.90;;;;;;4967974;28;20085;-80
2023/03/06 00:57:03;;;;;;;3.80;0.43;;;2.50;99.90;;;;;;4959727;28;20089;-81
2023/03/06 00:59:28;;;;;;;3.47;0.60;;;2.50;99.90;;;;;;4983984;28;20547;-81
2023/03/06 01:01:54;;;;;;;2.13;0.47;;;2.50;99.90;;;;;;4999991;28;20058;-81
2023/03/06 01:04:20;;;;;;;4.88;0.73;;;3.30;99.90;;;;;;4998643;28;20180;-81
2023/03/06 01:06:45;;;;;;;7.15;0.70;;;2.50;99.90;;;;;;4964386;28;20061;-80
2023/03/06 01:09:11;;;;;;;3.45;0.65;;;2.40;99.90;;;;;;5000436;28;20137;-80
2023/03/06 01:11:37;;;;;;;2.78;0.70;;;2.40;99.90;;;;;;5001202;28;20046;-80
2023/03/06 01:14:02;;;;;;;2.17;0.80;;;3.80;99.90;;;;;;4981994;28;20061;-80
2023/03/06 01:16:28;;;;;;;2.95;0.68;;;2.30;99.90;;;;;;4979934;28;20058;-80
2023/03/06 01:18:54;;;;;;;3.22;0.73;;;2.30;99.90;;;;;;4980762;28;20055;-80
2023/03/06 01:21:19;;;;;;;3.25;0.68;;;2.40;99.90;;;;;;5001786;28;20066;-81
2023/03/06 01:23:46;;;;;;;3.22;1.02;;;2.30;99.90;;;;;;5000714;28;20077;-80
2023/03/06 01:26:12;;;;;;;3.90;0.85;;;2.30;99.90;;;;;;4998277;28;20058;-80
2023/03/06 01:28:39;;;;;;;5.45;0.93;;;2.40;99.90;;;;;;4980782;28;20390;-80
2023/03/06 01:31:06;;;;;;;3.80;0.60;;;4.00;99.90;;;;;;4981174;28;20141;-81
2023/03/06 01:33:32;;;;;;;2.70;0.50;;;2.30;99.90;;;;;;5000852;28;20470;-80
2023/03/06 01:35:58;;;;;;;3.05;0.77;;;2.40;99.90;;;;;;4982634;28;20053;-80
2023/03/06 01:38:24;;;;;;;6.35;0.55;;;2.40;99.90;;;;;;4997435;28;20497;-81
2023/03/06 01:40:49;;;;;;;3.42;0.57;;;2.40;99.90;;;;;;4997445;28;20057;-81
2023/03/06 01:43:28;;;;;;;5.22;0.80;;;3.20;99.90;;;;;;4983460;28;20057;-80
2023/03/06 01:46:24;;;;;;;1.40;0.63;;;4.10;99.90;;;;;;5000347;28;20111;-80
2023/03/06 01:48:53;;;;;;;4.95;0.73;;;2.40;99.90;;;;;;4997757;28;20065;-80
2023/03/06 01:51:20;;;;;;;1.85;0.40;;;2.40;99.90;;;;;;4988822;28;20346;-80
2023/03/06 01:53:47;;;;;;;3.70;0.80;;;2.50;99.90;;;;;;4997757;28;20054;-80
2023/03/06 01:56:14;;;;;;;2.53;0.52;;;2.40;99.90;;;;;;4982638;28;20058;-80
2023/03/06 01:58:42;;;;;;;1.90;0.60;;;2.40;99.90;;;;;;4984642;28;20502;-80
2023/03/06 02:01:11;;;;;;;3.17;0.82;;;2.50;99.90;;;;;;4997793;28;20473;-80
2023/03/06 02:03:37;;;;;;;3.75;0.70;;;2.40;99.90;;;;;;4977369;28;20058;-78
2023/03/06 02:06:03;;;;;;;6.32;0.65;;;2.40;99.90;;;;;;4980773;28;20113;-78
2023/03/06 02:08:30;;;;;;;2.05;0.32;;;2.30;99.90;;;;;;5005471;28;20046;-78
2023/03/06 02:11:12;;;;;;;3.40;0.57;;;2.30;99.90;;;;;;5003168;28;20053;-78
2023/03/06 02:13:39;;;;;;;1.63;0.52;;;2.30;99.90;;;;;;4995666;28;20049;-78
2023/03/06 02:16:06;;;;;;;0.73;0.40;;;2.20;99.90;;;;;;4980889;28;20054;-78
2023/03/06 02:18:33;;;;;;;3.85;0.57;;;2.20;99.90;;;;;;5001122;28;20596;-78
2023/03/06 02:21:04;;;;;;;3.28;1.10;;;2.20;99.90;;;;;;4986862;28;20552;-78
2023/03/06 02:23:49;;;;;;;2.03;0.73;;;2.20;99.90;;;;;;4970299;28;20049;-78
2023/03/06 02:26:15;;;;;;;1.27;0.45;;;2.20;99.90;;;;;;4987650;28;20059;-78
2023/03/06 02:28:41;;;;;;;1.17;0.25;;;2.80;99.90;;;;;;5007521;28;20451;-78
2023/03/06 02:31:07;;;;;;;0.55;0.30;;;2.70;99.90;;;;;;4987608;28;20041;-79
2023/03/06 02:33:33;;;;;;;0.45;0.32;;;2.30;99.90;;;;;;4998587;28;20053;-78
2023/03/06 02:36:01;;;;;;;1.23;0.40;;;2.30;99.90;;;;;;4988783;28;20081;-78
2023/03/06 02:38:35;;;;;;;0.20;0.20;;;2.10;99.90;;;;;;4986618;28;20501;-78
2023/03/06 02:41:03;;;;;;;0.47;0.15;;;2.30;99.90;;;;;;4993329;28;20054;-78
2023/03/06 02:43:33;;;;;;;0.80;0.00;;;2.30;99.90;;;;;;5003243;28;20042;-78
2023/03/06 02:45:59;;;;;;;0.20;0.10;;;2.30;99.90;;;;;;4969787;28;20469;-78
2023/03/06 02:48:24;;;;;;;0.50;0.10;;;2.30;99.90;;;;;;4989343;28;20053;-79
2023/03/06 02:50:50;;;;;;;1.05;0.52;;;2.30;99.90;;;;;;4988766;28;20093;-78
2023/03/06 02:53:19;;;;;;;0.93;0.20;;;3.40;99.90;;;;;;4970304;28;20057;-79
2023/03/06 02:55:45;;;;;;;0.20;0.20;;;2.80;99.90;;;;;;4985099;28;20600;-78
2023/03/06 02:58:11;;;;;;;3.08;0.80;;;2.20;99.90;;;;;;5005061;28;20050;-78
2023/03/06 03:00:37;;;;;;;0.20;0.10;;;2.20;99.90;;;;;;4988861;28;20052;-78
2023/03/06 03:03:03;;;;;;;0.20;0.20;;;3.10;99.90;;;;;;5005412;28;20421;-78
2023/03/06 03:05:30;;;;;;;1.38;0.30;;;3.80;99.90;;;;;;5001936;28;20394;-78
2023/03/06 03:07:55;;;;;;;0.10;0.10;;;2.10;99.90;;;;;;5003258;28;20054;-78
2023/03/06 03:10:21;;;;;;;1.13;0.35;;;2.10;99.90;;;;;;5005655;28;20064;-78
2023/03/06 03:12:48;;;;;;;0.63;0.10;;;2.10;99.90;;;;;;4988728;28;20065;-78
2023/03/06 03:15:14;;;;;;;0.65;0.10;;;2.50;99.90;;;;;;4986743;28;20062;-78
2023/03/06 03:17:40;;;;;;;0.55;0.20;;;2.10;99.90;;;;;;5001379;28;20049;-79
2023/03/06 03:20:09;;;;;;;1.00;0.10;;;2.10;99.90;;;;;;4985883;28;20189;-78
2023/03/06 03:22:35;;;;;;;0.82;0.20;;;2.10;99.90;;;;;;4972222;28;20054;-78
2023/03/06 03:25:00;;;;;;;0.08;0.08;;;2.10;99.90;;;;;;4988769;28;20498;-79
2023/03/06 03:27:26;;;;;;;0.77;0.20;;;2.00;99.90;;;;;;4985761;28;20054;-79
2023/03/06 03:29:51;;;;;;;0.65;0.10;;;2.00;99.90;;;;;;4985047;28;20061;-78
2023/03/06 03:32:17;;;;;;;0.73;0.20;;;3.80;99.90;;;;;;5002738;28;20047;-79
2023/03/06 03:34:43;;;;;;;0.55;0.20;;;2.00;99.90;;;;;;4985682;28;20686;-78
2023/03/06 03:37:09;;;;;;;0.10;0.10;;;3.60;99.90;;;;;;4983977;28;20536;-79
2023/03/06 03:39:34;;;;;;;0.98;0.10;;;1.80;99.90;;;;;;5000232;28;20125;-78
2023/03/06 03:42:00;;;;;;;0.10;0.10;;;2.00;99.90;;;;;;4982355;28;20068;-78
2023/03/06 03:44:25;;;;;;;0.10;0.10;;;2.00;99.90;;;;;;5002613;28;20500;-78
2023/03/06 03:46:51;;;;;;;0.10;0.10;;;2.00;99.90;;;;;;5003409;28;20129;-78
2023/03/06 03:49:17;;;;;;;0.28;0.10;;;1.90;99.90;;;;;;4970626;28;20351;-78
2023/03/06 03:51:42;;;;;;;0.50;0.30;;;1.90;99.90;;;;;;4995916;28;20557;-79
2023/03/06 03:54:08;;;;;;;2.17;0.30;;;2.70;99.90;;;;;;5002119;28;20094;-79
2023/03/06 03:56:34;;;;;;;0.60;0.30;;;3.20;99.90;;;;;;5003169;28;20042;-79
2023/03/06 03:59:00;;;;;;;0.45;0.30;;;1.70;99.90;;;;;;5002373;28;20053;-78
2023/03/06 04:01:25;;;;;;;1.17;0.40;;;2.10;99.90;;;;;;4999419;28;20108;-79
2023/03/06 04:03:51;;;;;;;0.20;0.20;;;1.80;99.90;;;;;;4981890;28;20497;-78
2023/03/06 04:06:17;;;;;;;0.15;0.10;;;1.70;99.90;;;;;;4998790;28;20054;-79
2023/03/06 04:08:43;;;;;;;0.88;0.35;;;1.90;99.90;;;;;;4982029;28;20116;-79
2023/03/06 04:11:09;;;;;;;0.30;0.30;;;1.70;99.90;;;;;;4998473;28;20053;-79
2023/03/06 04:13:35;;;;;;;0.75;0.35;;;1.70;99.90;;;;;;4968135;28;20073;-79
2023/03/06 04:16:00;;;;;;;1.55;0.40;;;1.70;99.90;;;;;;4985061;28;20485;-79
2023/03/06 04:18:27;;;;;;;0.30;0.20;;;0.70;99.90;;;;;;4966287;28;20529;-78
2023/03/06 04:20:53;;;;;;;2.35;0.30;;;1.70;99.90;;;;;;4980597;28;20486;-78
2023/03/06 04:23:19;;;;;;;1.00;0.30;;;3.80;99.90;;;;;;4983643;28;20057;-78
2023/03/06 04:25:45;;;;;;;2.28;0.50;;;1.60;99.90;;;;;;5001832;28;20069;-78
2023/03/06 04:28:13;;;;;;;0.40;0.30;;;1.70;99.90;;;;;;4967952;28;20061;-79
2023/03/06 04:30:39;;;;;;;0.22;0.22;;;1.70;99.90;;;;;;4998571;28;20548;-79
2023/03/06 04:33:05;;;;;;;1.55;0.60;;;2.10;99.90;;;;;;4998105;28;20065;-79
2023/03/06 04:35:31;;;;;;;0.60;0.22;;;1.70;99.90;;;;;;4973266;28;20093;-79
2023/03/06 04:37:56;;;;;;;0.30;0.20;;;1.70;99.90;;;;;;4981388;28;20104;-78
2023/03/06 04:40:28;;;;;;;1.40;0.20;;;1.60;99.90;;;;;;5000288;28;20129;-78
2023/03/06 04:42:59;;;;;;;0.80;0.40;;;1.70;99.90;;;;;;5001493;28;20104;-79
2023/03/06 04:45:26;;;;;;;0.35;0.30;;;1.20;99.90;;;;;;4968344;28;20057;-78
2023/03/06 04:47:52;;;;;;;2.00;0.40;;;3.70;99.90;;;;;;4967627;28;20060;-78
2023/03/06 04:50:18;;;;;;;0.68;0.32;;;1.50;99.90;;;;;;4984182;28;20046;-79
2023/03/06 04:52:44;;;;;;;0.82;0.40;;;1.70;99.90;;;;;;4984327;28;20374;-79
2023/03/06 04:55:14;;;;;;;0.50;0.20;;;1.60;99.90;;;;;;5000810;28;20046;-78
2023/03/06 04:57:40;;;;;;;0.32;0.32;;;1.70;99.90;;;;;;4998238;28;20092;-78
2023/03/06 05:00:12;;;;;;;0.32;0.30;;;1.60;99.90;;;;;;4996798;28;20066;-79
2023/03/06 05:02:37;;;;;;;1.17;0.50;;;1.60;99.90;;;;;;4956933;28;20038;-79
2023/03/06 05:05:04;;;;;;;0.40;0.30;;;1.50;99.90;;;;;;4980699;28;20046;-79
2023/03/06 05:07:30;;;;;;;0.55;0.40;;;1.60;99.90;;;;;;4983371;28;20045;-78
2023/03/06 05:09:55;;;;;;;0.95;0.60;;;1.60;99.90;;;;;;4999556;28;20056;-78
2023/03/06 05:12:21;;;;;;;0.40;0.40;;;1.60;99.90;;;;;;4999768;28;20042;-78
2023/03/06 05:14:47;;;;;;;0.30;0.30;;;1.60;99.90;;;;;;4980601;28;20926;-79
2023/03/06 05:17:12;;;;;;;0.93;0.43;;;1.60;99.90;;;;;;4980345;28;20490;-80
2023/03/06 05:19:38;;;;;;;0.38;0.38;;;1.60;99.90;;;;;;4984097;28;20064;-79
2023/03/06 05:22:04;;;;;;;0.75;0.30;;;1.60;99.90;;;;;;5000397;28;20056;-79
2023/03/06 05:24:29;;;;;;;1.70;0.47;;;1.60;99.90;;;;;;4980917;28;20236;-79
2023/03/06 05:26:55;;;;;;;0.98;0.60;;;1.60;99.90;;;;;;4997600;28;20129;-78
2023/03/06 05:29:21;;;;;;;0.60;0.50;;;1.50;99.90;;;;;;4981057;28;20161;-78
2023/03/06 05:31:46;;;;;;;1.40;0.55;;;1.50;99.90;;;;;;5001207;28;20489;-78
2023/03/06 05:34:14;;;;;;;1.70;0.63;;;1.80;99.90;;;;;;4976381;28;20053;-79
2023/03/06 05:36:40;;;;;;;0.50;0.50;;;1.40;99.90;;;;;;4976200;28;20053;-79
2023/03/06 05:39:05;;;;;;;1.23;1.02;;;1.40;99.90;;;;;;4981847;28;20073;-78
2023/03/06 05:41:32;;;;;;;1.35;0.60;;;1.40;99.90;;;;;;4982638;28;20311;-79
2023/03/06 05:43:57;;;;;;;1.00;0.63;;;1.40;99.90;;;;;;4982806;28;20046;-79
2023/03/06 05:46:23;;;;;;;0.75;0.65;;;2.70;99.90;;;;;;4981862;28;20627;-79
2023/03/06 05:48:51;;;;;;;1.15;0.50;;;3.30;99.90;;;;;;4996417;28;20054;-79
2023/03/06 05:51:17;;;;;;;0.30;0.30;;;2.30;99.90;;;;;;4979800;28;20105;-79
2023/03/06 05:53:43;;;;;;;1.77;0.50;;;3.20;99.90;;;;;;4983072;28;20081;-79
2023/03/06 05:56:09;;;;;;;0.40;0.40;;;1.40;99.90;;;;;;4982498;28;20058;-79
2023/03/06 05:58:35;;;;;;;3.03;0.73;;;1.50;99.90;;;;;;4963068;28;20054;-79
2023/03/06 06:01:12;;;;;;;1.60;0.50;;;1.50;99.90;;;;;;4979504;28;20050;-79
2023/03/06 06:03:38;;;;;;;1.45;0.82;;;1.50;99.90;;;;;;4982996;28;20560;-79
2023/03/06 06:06:05;;;;;;;0.82;0.80;;;1.50;99.90;;;;;;4966337;28;20234;-79
2023/03/06 06:08:30;;;;;;;1.05;0.63;;;1.50;99.90;;;;;;4998148;28;20053;-78
2023/03/06 06:10:56;;;;;;;1.35;0.80;;;1.50;99.90;;;;;;4997123;28;20528;-80
2023/03/06 06:13:22;;;;;;;1.13;0.85;;;1.50;99.90;;;;;;4997735;28;20050;-80
2023/03/06 06:15:47;;;;;;;1.38;0.52;;;1.40;99.90;;;;;;4966595;28;20104;-79
2023/03/06 06:18:13;;;;;;;0.90;0.80;;;1.30;99.90;;;;;;5000814;28;20066;-80
2023/03/06 06:20:38;;;;;;;1.45;1.35;;;1.40;99.90;;;;;;4994997;28;20047;-79
2023/03/06 06:23:04;;;;;;;2.20;1.10;;;1.30;99.90;;;;;;4997231;28;20471;-79
2023/03/06 06:25:30;;;;;;;1.70;0.93;;;1.30;99.90;;;;;;4996862;28;20053;-79
2023/03/06 06:27:56;;;;;;;2.13;1.10;;;1.20;99.90;;;;;;4982829;28;20053;-79
2023/03/06 06:30:23;;;;;;;6.13;1.25;;;1.10;99.90;;;;;;4999353;28;20045;-80
2023/03/06 06:32:49;;;;;;;3.50;1.10;;;1.10;99.90;;;;;;4996783;28;20475;-80
2023/03/06 06:35:15;;;;;;;1.58;1.48;;;1.00;99.90;;;;;;4997060;28;20062;-80
2023/03/06 06:37:41;;;;;;;1.35;1.05;;;1.00;99.90;;;;;;4982747;28;20128;-79
2023/03/06 06:40:07;;;;;;;1.10;1.00;;;1.70;99.90;;;;;;4999110;28;20137;-79
2023/03/06 06:42:35;;;;;;;1.55;1.27;;;0.90;99.90;;;;;;4979745;28;20086;-79
2023/03/06 06:45:01;;;;;;;1.40;1.13;;;0.90;99.90;;;;;;4995545;28;20042;-79
2023/03/06 06:47:27;;;;;;;2.70;1.00;;;2.40;99.90;;;;;;4996564;28;20062;-79
2023/03/06 06:49:54;;;;;;;1.98;1.13;;;1.80;99.90;;;;;;4966512;28;20141;-79
2023/03/06 06:52:21;;;;;;;1.42;1.10;;;0.80;99.90;;;;;;5000026;28;20046;-81
2023/03/06 06:54:46;;;;;;;2.17;0.80;;;0.90;99.90;;;;;;4995190;28;20062;-80
2023/03/06 06:57:12;;;;;;;0.80;0.80;;;0.80;99.90;;;;;;4979256;28;20042;-80
2023/03/06 06:59:38;;;;;;;1.38;1.27;;;0.90;99.90;;;;;;4981838;28;20081;-80
2023/03/06 07:02:04;;;;;;;5.35;2.15;;;2.70;99.90;;;;;;4966129;28;20046;-79
2023/03/06 07:04:33;;;;;;;1.02;1.02;;;2.80;99.90;;;;;;4981218;28;20045;-80
2023/03/06 07:06:59;;;;;;;1.67;1.10;;;0.80;99.90;;;;;;4981757;28;20049;-80
2023/03/06 07:09:25;;;;;;;1.88;1.40;;;0.90;99.90;;;;;;4983671;28;20174;-79
2023/03/06 07:11:51;;;;;;;1.85;1.75;;;2.20;99.90;;;;;;4969616;28;20133;-80
2023/03/06 07:14:17;;;;;;;2.85;1.50;;;0.90;99.90;;;;;;4986220;28;20061;-80
2023/03/06 07:16:42;;;;;;;2.92;1.67;;;0.90;99.90;;;;;;5004241;28;20033;-79
2023/03/06 07:19:08;;;;;;;3.25;1.50;;;0.80;99.90;;;;;;5007106;28;20038;-79
2023/03/06 07:21:33;;;;;;;3.85;1.60;;;0.80;99.90;;;;;;5003413;28;20058;-79
2023/03/06 07:23:59;;;;;;;1.90;1.65;;;0.90;99.90;;;;;;5003517;28;20081;-80
2023/03/06 07:26:26;;;;;;;2.90;2.10;;;0.90;99.90;;;;;;5003372;28;20107;-81
2023/03/06 07:28:52;;;;;;;1.80;1.65;;;0.90;99.90;;;;;;4999741;28;20050;-80
2023/03/06 07:31:23;;;;;;;7.90;3.42;;;0.90;99.90;;;;;;4982363;28;20062;-80
2023/03/06 07:33:50;;;;;;;2.00;1.85;;;0.90;99.90;;;;;;4991042;28;20090;-80
2023/03/06 07:36:19;;;;;;;4.30;1.33;;;1.60;99.90;;;;;;4999286;28;20057;-80
2023/03/06 07:38:46;;;;;;;1.60;1.42;;;1.00;99.90;;;;;;4985440;28;20537;-79
2023/03/06 07:41:13;;;;;;;2.72;1.52;;;0.90;99.90;;;;;;4984866;28;20465;-80
2023/03/06 07:43:43;;;;;;;2.00;1.55;;;0.80;99.90;;;;;;4967552;28;20042;-79
2023/03/06 07:46:09;;;;;;;7.60;1.70;;;0.90;99.90;;;;;;4982137;28;20050;-80
2023/03/06 07:48:38;;;;;;;1.98;1.88;;;0.90;99.90;;;;;;4999185;28;20058;-80
2023/03/06 07:51:06;;;;;;;3.78;1.83;;;1.10;99.90;;;;;;4985425;28;20058;-80
2023/03/06 07:53:32;;;;;;;3.15;2.42;;;1.00;99.90;;;;;;4968183;28;20141;-79
2023/03/06 07:55:58;;;;;;;4.63;2.53;;;0.90;99.90;;;;;;4997565;28;20344;-80
2023/03/06 07:58:25;;;;;;;9.77;5.88;;;1.00;99.90;;;;;;4982530;28;20122;-80
2023/03/06 08:00:50;;;;;;;1.50;1.40;;;1.00;99.90;;;;;;4973746;28;20458;-81
2023/03/06 08:03:16;;;;;;;1.70;1.60;;;1.00;99.90;;;;;;4997740;28;20077;-80
2023/03/06 08:05:42;;;;;;;2.38;1.80;;;1.00;99.90;;;;;;4984170;28;20121;-80
2023/03/06 08:08:08;;;;;;;4.03;1.45;;;1.00;99.90;;;;;;4985302;28;20141;-80
2023/03/06 08:10:33;;;;;;;1.70;1.38;;;0.90;99.90;;;;;;4968232;28;20045;-79
2023/03/06 08:12:59;;;;;;;3.53;1.10;;;1.70;99.90;;;;;;4984744;28;20053;-79
2023/03/06 08:15:25;;;;;;;3.38;1.30;;;1.20;99.90;;;;;;4969186;28;20481;-79
2023/03/06 08:17:51;;;;;;;3.80;1.38;;;1.20;99.90;;;;;;4997886;28;20089;-79
2023/03/06 08:20:17;;;;;;;1.10;1.00;;;1.30;99.90;;;;;;4981417;28;20046;-79
2023/03/06 08:22:43;;;;;;;2.17;0.93;;;1.40;99.90;;;;;;4983349;28;20074;-79
2023/03/06 08:25:10;;;;;;;2.13;1.00;;;1.40;99.90;;;;;;4984502;28;20507;-79
2023/03/06 08:27:36;;;;;;;3.88;0.80;;;2.80;99.90;;;;;;4983680;28;20081;-79
2023/03/06 08:30:02;;;;;;;3.50;0.88;;;1.60;99.90;;;;;;4998664;28;20093;-80
2023/03/06 08:32:28;;;;;;;3.17;0.73;;;1.70;99.90;;;;;;4980580;28;20062;-78
2023/03/06 08:34:53;;;;;;;2.45;0.93;;;2.50;99.90;;;;;;4968683;28;20041;-79
2023/03/06 08:37:19;;;;;;;3.15;1.20;;;1.70;99.90;;;;;;5001205;28;20046;-79
2023/03/06 08:39:45;;;;;;;2.55;1.08;;;1.70;99.90;;;;;;5000202;28;20087;-78
2023/03/06 08:42:14;;;;;;;6.38;1.00;;;1.80;99.90;;;;;;4998461;28;20042;-79
2023/03/06 08:44:40;;;;;;;1.90;0.80;;;1.90;99.90;;;;;;4965891;28;20073;-79
2023/03/06 08:47:06;;;;;;;7.40;2.00;;;1.90;99.90;;;;;;4984447;28;20486;-79
2023/03/06 08:49:31;;;;;;;2.72;1.63;;;2.70;99.90;;;;;;5001096;28;20486;-79
2023/03/06 08:51:57;;;;;;;2.90;1.25;;;1.90;99.90;;;;;;4998143;28;20113;-79
2023/03/06 08:54:23;;;;;;;2.80;1.08;;;2.00;99.90;;;;;;4998196;28;20128;-79
2023/03/06 08:56:48;;;;;;;1.35;0.70;;;2.10;99.90;;;;;;5002902;28;20072;-78
2023/03/06 08:59:14;;;;;;;2.58;0.98;;;2.10;99.90;;;;;;4984073;28;20054;-78
2023/03/06 09:01:40;;;;;;;1.20;0.70;;;2.20;99.90;;;;;;5017631;28;20057;-79
2023/03/06 09:04:08;;;;;;;3.08;1.00;;;2.20;99.90;;;;;;5003288;28;20081;-79
2023/03/06 09:06:37;;;;;;;2.25;1.00;;;2.40;99.90;;;;;;4967321;28;20069;-79
2023/03/06 09:09:03;;;;;;;2.78;0.77;;;2.40;99.90;;;;;;4980807;28;20569;-78
2023/03/06 09:11:30;;;;;;;1.80;0.60;;;2.40;99.90;;;;;;4997750;28;20085;-78
2023/03/06 09:13:56;;;;;;;2.00;0.60;;;2.40;99.90;;;;;;5000234;28;20072;-78
2023/03/06 09:16:23;;;;;;;4.70;1.10;;;4.20;99.90;;;;;;4961501;28;20142;-79
2023/03/06 09:18:51;;;;;;;5.00;1.20;;;2.60;99.90;;;;;;4966168;28;20160;-80
2023/03/06 09:21:17;;;;;;;3.83;1.00;;;2.70;99.90;;;;;;5000493;28;20417;-79
2023/03/06 09:23:43;;;;;;;3.08;0.82;;;2.80;99.90;;;;;;4966780;28;20042;-79
2023/03/06 09:26:11;;;;;;;5.85;0.90;;;2.80;99.90;;;;;;4997578;28;20038;-80
2023/03/06 09:28:38;;;;;;;3.00;0.90;;;2.90;99.90;;;;;;4979828;28;20081;-80
2023/03/06 09:31:13;;;;;;;5.32;0.90;;;2.90;99.90;;;;;;5000701;28;20096;-80
2023/03/06 09:33:39;;;;;;;4.07;1.40;;;4.70;99.90;;;;;;4999980;28;20064;-80
2023/03/06 09:36:07;;;;;;;1.52;0.35;;;3.00;99.90;;;;;;4997809;28;20100;-80
2023/03/06 09:38:32;;;;;;;2.40;0.50;;;3.10;99.90;;;;;;4979903;28;20506;-80
2023/03/06 09:41:01;;;;;;;1.83;0.50;;;3.10;99.90;;;;;;4981791;28;20045;-80
2023/03/06 09:43:44;;;;;;;3.10;0.40;;;3.10;99.90;;;;;;4983654;28;20478;-80
2023/03/06 09:46:26;;;;;;;4.03;0.85;;;3.20;99.90;;;;;;4956567;28;20046;-79
2023/03/06 09:49:10;;;;;;;3.70;0.28;;;3.30;99.90;;;;;;4981095;28;20058;-79
2023/03/06 09:52:13;;;;;;;0.57;0.25;;;3.30;99.90;;;;;;4999629;28;20058;-79
2023/03/06 09:54:43;;;;;;;3.50;0.30;;;3.40;99.90;;;;;;4975956;28;20042;-80
2023/03/06 09:57:20;;;;;;;3.13;0.17;;;3.40;99.90;;;;;;4983481;28;20355;-79
2023/03/06 09:59:49;;;;;;;1.48;0.20;;;3.50;99.90;;;;;;4982229;28;20052;-80
2023/03/06 10:02:24;;;;;;;3.97;0.22;;;3.60;99.90;;;;;;4996804;28;20046;-79
2023/03/06 10:04:58;;;;;;;7.25;0.50;;;3.60;99.90;;;;;;4981028;28;20138;-79
2023/03/06 10:07:32;;;;;;;14.88;1.02;;;3.60;99.90;;;;;;4983596;28;20045;-80
2023/03/06 10:10:10;;;;;;;1.98;0.30;;;4.10;99.90;;;;;;4997553;28;20041;-79
2023/03/06 10:12:42;;;;;;;3.58;0.13;;;3.70;99.90;;;;;;4979526;28;20058;-79
2023/03/06 10:15:22;;;;;;;3.25;0.70;;;3.80;99.90;;;;;;4988030;28;20574;-79
2023/03/06 10:17:48;;;;;;;6.07;0.17;;;3.80;99.90;;;;;;4979958;28;20608;-79
2023/03/06 10:20:35;;;;;;;2.40;0.30;;;3.90;99.90;;;;;;4982629;28;20093;-79
2023/03/06 10:23:12;;;;;;;1.98;0.20;;;3.90;99.90;;;;;;4979707;28;20056;-79
2023/03/06 10:26:10;;;;;;;3.25;0.82;;;3.90;99.90;;;;;;4979479;28;20081;-80
2023/03/06 10:28:59;;;;;;;1.35;0.28;;;4.00;99.90;;;;;;4991771;28;20042;-79
2023/03/06 10:31:27;;;;;;;3.42;0.20;;;4.00;99.90;;;;;;4973375;28;20053;-79
2023/03/06 10:34:31;;;;;;;1.17;0.10;;;4.30;99.90;;;;;;4980573;28;20058;-79
2023/03/06 10:37:16;;;;;;;2.80;0.20;;;4.30;99.90;;;;;;4950709;28;20056;-79
2023/03/06 10:39:42;;;;;;;2.28;0.68;;;4.40;99.90;;;;;;4995894;28;20088;-79
2023/03/06 10:42:08;;;;;;;6.15;1.80;;;4.40;99.90;;;;;;5003363;28;20073;-79
2023/03/06 10:44:34;;;;;;;3.03;0.98;;;4.40;99.90;;;;;;4998359;28;20073;-80
2023/03/06 10:47:34;;;;;;;1.35;0.35;;;4.40;99.90;;;;;;5002735;28;20050;-79
2023/03/06 10:50:02;;;;;;;1.83;0.40;;;4.50;99.90;;;;;;5002531;28;20588;-80
2023/03/06 10:52:30;;;;;;;0.90;0.20;;;4.50;99.90;;;;;;5003622;28;20054;-79
2023/03/06 10:55:24;;;;;;;1.17;0.47;;;4.40;99.90;;;;;;4985251;28;20486;-80
2023/03/06 10:57:50;;;;;;;1.58;0.50;;;4.40;99.90;;;;;;4982932;28;20050;-80
2023/03/06 11:00:41;;;;;;;2.85;0.40;;;4.40;99.90;;;;;;5004083;28;20050;-80
2023/03/06 11:03:16;;;;;;;1.58;0.30;;;4.40;99.90;;;;;;4973180;28;20068;-81
2023/03/06 11:06:05;;;;;;;2.53;0.43;;;4.60;99.90;;;;;;4998376;28;20069;-81
2023/03/06 11:08:31;;;;;;;3.50;0.20;;;4.30;99.90;;;;;;5000958;28;20046;-79
2023/03/06 11:11:05;;;;;;;4.47;0.32;;;4.40;99.90;;;;;;4984713;28;20048;-79
2023/03/06 11:13:37;;;;;;;3.05;0.90;;;4.40;99.90;;;;;;4966097;28;20055;-80
2023/03/06 11:16:17;;;;;;;3.92;0.55;;;4.90;99.90;;;;;;4995972;28;20043;-79
2023/03/06 11:18:56;;;;;;;1.73;0.20;;;4.30;99.90;;;;;;4985925;28;20528;-78
2023/03/06 11:21:26;;;;;;;2.17;0.38;;;5.20;99.90;;;;;;4999668;28;20169;-79
2023/03/06 11:23:54;;;;;;;3.03;0.30;;;5.50;99.90;;;;;;5000694;28;20046;-78
2023/03/06 11:26:35;;;;;;;4.22;0.60;;;4.40;99.90;;;;;;5003091;28;20050;-79
2023/03/06 11:29:13;;;;;;;2.83;0.30;;;4.40;99.90;;;;;;4968054;28;20060;-78
2023/03/06 11:31:46;;;;;;;3.10;0.22;;;4.40;99.90;;;;;;4982481;28;20093;-79
2023/03/06 11:34:42;;;;;;;2.90;0.30;;;5.50;99.90;;;;;;4984321;28;20485;-80
2023/03/06 11:37:23;;;;;;;1.63;0.15;;;5.80;99.90;;;;;;4966801;28;20057;-79
2023/03/06 11:40:05;;;;;;;1.33;0.35;;;4.70;99.90;;;;;;4999670;28;20576;-80
2023/03/06 11:42:39;;;;;;;4.57;0.57;;;4.80;99.90;;;;;;4960728;28;20125;-80
2023/03/06 11:45:27;;;;;;;4.15;0.20;;;4.80;99.90;;;;;;4983721;28;20901;-79
2023/03/06 11:48:08;;;;;;;2.55;0.20;;;5.00;99.90;;;;;;4968657;28;20481;-79
2023/03/06 11:50:58;;;;;;;1.27;0.40;;;5.20;99.90;;;;;;4982195;28;20054;-80
2023/03/06 11:53:36;;;;;;;1.70;0.25;;;5.40;99.90;;;;;;4973846;28;20050;-80
2023/03/06 11:56:17;;;;;;;2.35;0.10;;;5.40;99.90;;;;;;4982879;28;20050;-79
2023/03/06 11:59:14;;;;;;;7.43;2.00;;;5.30;99.90;;;;;;4985342;28;20050;-79
2023/03/06 12:02:09;;;;;;;3.67;0.30;;;5.20;99.90;;;;;;4992356;28;20052;-79
2023/03/06 12:04:53;;;;;;;3.67;0.70;;;5.20;99.90;;;;;;4967801;28;20555;-79
2023/03/06 12:07:30;;;;;;;2.40;0.28;;;5.20;99.90;;;;;;5002804;28;20425;-79
2023/03/06 12:10:18;;;;;;;1.55;0.28;;;5.20;99.90;;;;;;4984569;28;20062;-79
2023/03/06 12:13:13;;;;;;;1.35;0.20;;;5.10;99.90;;;;;;4965516;28;20490;-79
2023/03/06 12:16:21;;;;;;;1.30;0.20;;;5.10;99.90;;;;;;4975785;28;20093;-79
2023/03/06 12:19:17;;;;;;;0.85;0.20;;;5.10;99.90;;;;;;4994979;28;20053;-79
2023/03/06 12:21:53;;;;;;;2.88;0.10;;;5.00;99.90;;;;;;5016637;28;20026;-79
2023/03/06 12:24:30;;;;;;;1.38;0.20;;;4.90;99.90;;;;;;5003989;28;20042;-79
2023/03/06 12:27:07;;;;;;;3.75;0.30;;;4.90;99.90;;;;;;4984743;28;20546;-80
2023/03/06 12:29:33;;;;;;;2.17;0.13;;;4.90;99.90;;;;;;4996638;28;20541;-79
2023/03/06 12:32:13;;;;;;;0.80;0.00;;;4.90;99.90;;;;;;4965682;28;20042;-80
2023/03/06 12:35:16;;;;;;;5.53;0.35;;;4.90;99.90;;;;;;4984375;28;20049;-80
2023/03/06 12:37:57;;;;;;;1.50;0.50;;;4.90;99.90;;;;;;4980686;28;20054;-79
2023/03/06 12:40:26;;;;;;;2.53;0.20;;;5.10;99.90;;;;;;4973093;28;20133;-80
2023/03/06 12:43:09;;;;;;;5.20;0.28;;;5.10;99.90;;;;;;4981185;28;20049;-80
2023/03/06 12:45:38;;;;;;;4.18;0.65;;;5.20;99.90;;;;;;4974073;28;20078;-80
2023/03/06 12:48:13;;;;;;;1.42;0.47;;;6.10;99.90;;;;;;4981880;28;20073;-80
2023/03/06 12:50:43;;;;;;;3.67;0.30;;;5.30;99.90;;;;;;5001049;28;20038;-80
2023/03/06 12:53:17;;;;;;;2.50;0.10;;;5.40;99.90;;;;;;5000822;28;20053;-80
2023/03/06 12:55:48;;;;;;;0.52;0.10;;;6.90;99.90;;;;;;4980937;28;20042;-80
2023/03/06 12:58:47;;;;;;;1.75;0.30;;;5.50;99.90;;;;;;4981848;28;20061;-80
2023/03/06 13:01:47;;;;;;;3.35;0.52;;;5.50;99.90;;;;;;4978188;28;20065;-80
2023/03/06 13:04:34;;;;;;;3.35;0.38;;;5.50;99.90;;;;;;4981682;28;20499;-80
2023/03/06 13:07:09;;;;;;;10.52;0.52;;;5.60;99.90;;;;;;5000556;28;20081;-80
2023/03/06 13:10:04;;;;;;;3.78;0.20;;;5.60;99.90;;;;;;4973494;28;20576;-80
2023/03/06 13:12:45;;;;;;;2.25;0.10;;;5.70;99.90;;;;;;4989851;28;20057;-80